sensor_id;sensor_type;location;lat;lon;timestamp;P1;durP1;ratioP1;P2;durP2;ratioP2
74503;SDS011;62988;55.776;37.544;2023-03-31T00:00:28;3.30;;;1.92;;
74503;SDS011;62988;55.776;37.544;2023-03-31T00:02:53;3.83;;;2.30;;
74503;SDS011;62988;55.776;37.544;2023-03-31T00:05:20;3.38;;;2.03;;
74503;SDS011;62988;55.776;37.544;2023-03-31T00:07:52;5.38;;;2.25;;
74503;SDS011;62988;55.776;37.544;2023-03-31T00:10:17;3.80;;;2.17;;
74503;SDS011;62988;55.776;37.544;2023-03-31T00:12:43;3.63;;;2.28;;
74503;SDS011;62988;55.776;37.544;2023-03-31T00:15:09;3.97;;;1.85;;
74503;SDS011;62988;55.776;37.544;2023-03-31T00:17:34;3.97;;;2.00;;
74503;SDS011;62988;55.776;37.544;2023-03-31T00:19:59;3.80;;;2.20;;
74503;SDS011;62988;55.776;37.544;2023-03-31T00:22:26;4.15;;;2.28;;
74503;SDS011;62988;55.776;37.544;2023-03-31T00:24:52;4.83;;;2.30;;
74503;SDS011;62988;55.776;37.544;2023-03-31T00:27:17;3.53;;;1.95;;
74503;SDS011;62988;55.776;37.544;2023-03-31T00:29:42;3.90;;;2.00;;
74503;SDS011;62988;55.776;37.544;2023-03-31T00:32:09;3.85;;;2.05;;
74503;SDS011;62988;55.776;37.544;2023-03-31T00:34:34;3.58;;;2.17;;
74503;SDS011;62988;55.776;37.544;2023-03-31T00:37:00;3.50;;;1.80;;
74503;SDS011;62988;55.776;37.544;2023-03-31T00:39:27;5.82;;;2.42;;
74503;SDS011;62988;55.776;37.544;2023-03-31T00:41:56;4.45;;;2.40;;
74503;SDS011;62988;55.776;37.544;2023-03-31T00:44:22;4.63;;;1.92;;
74503;SDS011;62988;55.776;37.544;2023-03-31T00:46:55;5.18;;;2.55;;
74503;SDS011;62988;55.776;37.544;2023-03-31T00:54:44;3.75;;;2.25;;
74503;SDS011;62988;55.776;37.544;2023-03-31T00:57:11;3.95;;;2.42;;
74503;SDS011;62988;55.776;37.544;2023-03-31T00:59:37;4.25;;;2.42;;
74503;SDS011;62988;55.776;37.544;2023-03-31T01:02:04;5.22;;;2.78;;
74503;SDS011;62988;55.776;37.544;2023-03-31T01:04:34;3.85;;;2.55;;
74503;SDS011;62988;55.776;37.544;2023-03-31T01:07:12;4.90;;;2.42;;
74503;SDS011;62988;55.776;37.544;2023-03-31T01:09:40;4.43;;;2.63;;
74503;SDS011;62988;55.776;37.544;2023-03-31T01:12:11;4.85;;;2.22;;
74503;SDS011;62988;55.776;37.544;2023-03-31T01:14:37;4.47;;;2.65;;
74503;SDS011;62988;55.776;37.544;2023-03-31T01:17:03;5.27;;;2.63;;
74503;SDS011;62988;55.776;37.544;2023-03-31T01:19:35;4.05;;;2.20;;
74503;SDS011;62988;55.776;37.544;2023-03-31T01:35:04;4.25;;;2.38;;
74503;SDS011;62988;55.776;37.544;2023-03-31T01:42:41;4.15;;;2.30;;
74503;SDS011;62988;55.776;37.544;2023-03-31T01:47:55;3.47;;;2.10;;
74503;SDS011;62988;55.776;37.544;2023-03-31T01:50:27;3.03;;;1.75;;
74503;SDS011;62988;55.776;37.544;2023-03-31T01:52:56;3.60;;;1.70;;
74503;SDS011;62988;55.776;37.544;2023-03-31T01:55:31;2.55;;;1.38;;
74503;SDS011;62988;55.776;37.544;2023-03-31T01:58:02;3.05;;;1.35;;
74503;SDS011;62988;55.776;37.544;2023-03-31T02:00:31;2.53;;;1.35;;
74503;SDS011;62988;55.776;37.544;2023-03-31T02:03:09;2.45;;;1.23;;
74503;SDS011;62988;55.776;37.544;2023-03-31T02:05:37;4.28;;;1.50;;
74503;SDS011;62988;55.776;37.544;2023-03-31T02:10:33;2.92;;;1.65;;
74503;SDS011;62988;55.776;37.544;2023-03-31T02:12:59;3.75;;;1.83;;
74503;SDS011;62988;55.776;37.544;2023-03-31T02:15:27;3.72;;;1.92;;
74503;SDS011;62988;55.776;37.544;2023-03-31T02:17:54;9.73;;;2.30;;
74503;SDS011;62988;55.776;37.544;2023-03-31T02:20:20;3.97;;;1.90;;
74503;SDS011;62988;55.776;37.544;2023-03-31T02:22:47;4.95;;;2.40;;
74503;SDS011;62988;55.776;37.544;2023-03-31T02:25:14;3.67;;;1.83;;
74503;SDS011;62988;55.776;37.544;2023-03-31T02:27:42;3.00;;;2.00;;
74503;SDS011;62988;55.776;37.544;2023-03-31T02:30:08;3.60;;;1.80;;
74503;SDS011;62988;55.776;37.544;2023-03-31T02:32:38;4.55;;;2.00;;
74503;SDS011;62988;55.776;37.544;2023-03-31T02:35:05;3.13;;;1.75;;
74503;SDS011;62988;55.776;37.544;2023-03-31T02:37:31;5.03;;;2.10;;
74503;SDS011;62988;55.776;37.544;2023-03-31T02:39:58;3.65;;;2.10;;
74503;SDS011;62988;55.776;37.544;2023-03-31T02:42:24;3.47;;;1.92;;
74503;SDS011;62988;55.776;37.544;2023-03-31T02:44:49;4.00;;;2.05;;
74503;SDS011;62988;55.776;37.544;2023-03-31T02:47:16;4.00;;;2.08;;
74503;SDS011;62988;55.776;37.544;2023-03-31T02:49:43;3.90;;;1.58;;
74503;SDS011;62988;55.776;37.544;2023-03-31T03:13:35;3.60;;;1.58;;
74503;SDS011;62988;55.776;37.544;2023-03-31T03:16:11;3.42;;;1.80;;
74503;SDS011;62988;55.776;37.544;2023-03-31T03:18:43;5.70;;;1.65;;
74503;SDS011;62988;55.776;37.544;2023-03-31T03:21:09;3.20;;;1.83;;
74503;SDS011;62988;55.776;37.544;2023-03-31T03:23:34;3.53;;;1.85;;
74503;SDS011;62988;55.776;37.544;2023-03-31T03:25:59;3.63;;;1.90;;
74503;SDS011;62988;55.776;37.544;2023-03-31T03:28:25;5.77;;;2.00;;
74503;SDS011;62988;55.776;37.544;2023-03-31T03:30:51;4.68;;;1.98;;
74503;SDS011;62988;55.776;37.544;2023-03-31T03:33:17;3.50;;;1.48;;
74503;SDS011;62988;55.776;37.544;2023-03-31T03:35:42;3.00;;;1.50;;
74503;SDS011;62988;55.776;37.544;2023-03-31T03:38:08;2.42;;;1.55;;
74503;SDS011;62988;55.776;37.544;2023-03-31T03:40:33;3.42;;;2.00;;
74503;SDS011;62988;55.776;37.544;2023-03-31T03:42:59;3.70;;;2.20;;
74503;SDS011;62988;55.776;37.544;2023-03-31T03:45:24;5.82;;;1.98;;
74503;SDS011;62988;55.776;37.544;2023-03-31T03:47:49;7.00;;;2.25;;
74503;SDS011;62988;55.776;37.544;2023-03-31T03:50:15;4.05;;;1.85;;
74503;SDS011;62988;55.776;37.544;2023-03-31T03:52:40;3.92;;;2.13;;
74503;SDS011;62988;55.776;37.544;2023-03-31T03:55:06;3.65;;;1.77;;
74503;SDS011;62988;55.776;37.544;2023-03-31T03:57:31;2.95;;;1.38;;
74503;SDS011;62988;55.776;37.544;2023-03-31T03:59:56;2.85;;;1.70;;
74503;SDS011;62988;55.776;37.544;2023-03-31T04:02:22;8.67;;;2.10;;
74503;SDS011;62988;55.776;37.544;2023-03-31T04:04:47;3.30;;;1.80;;
74503;SDS011;62988;55.776;37.544;2023-03-31T04:07:13;7.75;;;2.08;;
74503;SDS011;62988;55.776;37.544;2023-03-31T04:09:38;3.60;;;2.17;;
74503;SDS011;62988;55.776;37.544;2023-03-31T04:12:03;7.07;;;2.03;;
74503;SDS011;62988;55.776;37.544;2023-03-31T04:14:29;5.90;;;2.45;;
74503;SDS011;62988;55.776;37.544;2023-03-31T04:16:57;3.78;;;2.20;;
74503;SDS011;62988;55.776;37.544;2023-03-31T04:19:23;4.60;;;2.92;;
74503;SDS011;62988;55.776;37.544;2023-03-31T04:21:51;3.75;;;1.85;;
74503;SDS011;62988;55.776;37.544;2023-03-31T04:24:28;3.15;;;1.77;;
74503;SDS011;62988;55.776;37.544;2023-03-31T04:26:57;6.25;;;2.40;;
74503;SDS011;62988;55.776;37.544;2023-03-31T04:29:23;5.28;;;2.40;;
74503;SDS011;62988;55.776;37.544;2023-03-31T04:31:50;5.00;;;2.10;;
74503;SDS011;62988;55.776;37.544;2023-03-31T04:34:16;3.63;;;1.77;;
74503;SDS011;62988;55.776;37.544;2023-03-31T04:36:42;3.20;;;1.60;;
74503;SDS011;62988;55.776;37.544;2023-03-31T04:39:11;5.40;;;2.25;;
74503;SDS011;62988;55.776;37.544;2023-03-31T04:41:37;6.20;;;2.20;;
74503;SDS011;62988;55.776;37.544;2023-03-31T04:44:02;8.63;;;2.83;;
74503;SDS011;62988;55.776;37.544;2023-03-31T04:46:28;6.28;;;1.92;;
74503;SDS011;62988;55.776;37.544;2023-03-31T04:48:53;8.47;;;2.60;;
74503;SDS011;62988;55.776;37.544;2023-03-31T04:51:18;6.20;;;2.40;;
74503;SDS011;62988;55.776;37.544;2023-03-31T04:53:44;4.75;;;2.35;;
74503;SDS011;62988;55.776;37.544;2023-03-31T04:56:10;4.22;;;2.00;;
74503;SDS011;62988;55.776;37.544;2023-03-31T04:58:35;15.60;;;2.63;;
74503;SDS011;62988;55.776;37.544;2023-03-31T05:01:00;3.43;;;1.87;;
74503;SDS011;62988;55.776;37.544;2023-03-31T05:03:26;4.13;;;2.20;;
74503;SDS011;62988;55.776;37.544;2023-03-31T05:05:51;5.53;;;1.23;;
74503;SDS011;62988;55.776;37.544;2023-03-31T05:08:19;4.97;;;1.80;;
74503;SDS011;62988;55.776;37.544;2023-03-31T05:10:45;6.03;;;1.77;;
74503;SDS011;62988;55.776;37.544;2023-03-31T05:13:10;4.65;;;1.98;;
74503;SDS011;62988;55.776;37.544;2023-03-31T05:15:36;2.93;;;1.67;;
74503;SDS011;62988;55.776;37.544;2023-03-31T05:18:02;3.30;;;1.75;;
74503;SDS011;62988;55.776;37.544;2023-03-31T05:20:27;4.70;;;2.05;;
74503;SDS011;62988;55.776;37.544;2023-03-31T05:22:55;7.38;;;1.90;;
74503;SDS011;62988;55.776;37.544;2023-03-31T05:25:21;7.85;;;1.83;;
74503;SDS011;62988;55.776;37.544;2023-03-31T05:27:46;4.18;;;2.10;;
74503;SDS011;62988;55.776;37.544;2023-03-31T05:30:12;5.10;;;2.63;;
74503;SDS011;62988;55.776;37.544;2023-03-31T05:32:38;8.65;;;2.58;;
74503;SDS011;62988;55.776;37.544;2023-03-31T05:35:03;6.18;;;2.45;;
74503;SDS011;62988;55.776;37.544;2023-03-31T05:37:29;4.97;;;2.22;;
74503;SDS011;62988;55.776;37.544;2023-03-31T05:39:54;4.47;;;2.35;;
74503;SDS011;62988;55.776;37.544;2023-03-31T05:42:20;7.73;;;3.27;;
74503;SDS011;62988;55.776;37.544;2023-03-31T05:44:47;6.35;;;2.63;;
74503;SDS011;62988;55.776;37.544;2023-03-31T05:47:12;5.75;;;2.72;;
74503;SDS011;62988;55.776;37.544;2023-03-31T05:49:38;9.15;;;3.45;;
74503;SDS011;62988;55.776;37.544;2023-03-31T05:52:04;6.22;;;2.47;;
74503;SDS011;62988;55.776;37.544;2023-03-31T05:54:30;6.00;;;2.78;;
74503;SDS011;62988;55.776;37.544;2023-03-31T05:56:56;6.47;;;2.72;;
74503;SDS011;62988;55.776;37.544;2023-03-31T05:59:21;5.03;;;3.20;;
74503;SDS011;62988;55.776;37.544;2023-03-31T06:01:46;10.00;;;2.57;;
74503;SDS011;62988;55.776;37.544;2023-03-31T06:04:12;7.57;;;3.13;;
74503;SDS011;62988;55.776;37.544;2023-03-31T06:06:37;12.80;;;2.60;;
74503;SDS011;62988;55.776;37.544;2023-03-31T06:09:03;12.32;;;2.58;;
74503;SDS011;62988;55.776;37.544;2023-03-31T06:11:29;4.95;;;2.45;;
74503;SDS011;62988;55.776;37.544;2023-03-31T06:13:54;8.25;;;2.70;;
74503;SDS011;62988;55.776;37.544;2023-03-31T06:16:19;6.47;;;3.67;;
74503;SDS011;62988;55.776;37.544;2023-03-31T06:18:45;5.78;;;2.75;;
74503;SDS011;62988;55.776;37.544;2023-03-31T06:21:14;4.55;;;2.05;;
74503;SDS011;62988;55.776;37.544;2023-03-31T06:23:43;6.28;;;2.25;;
74503;SDS011;62988;55.776;37.544;2023-03-31T06:26:13;5.57;;;2.72;;
74503;SDS011;62988;55.776;37.544;2023-03-31T06:28:39;9.32;;;3.75;;
74503;SDS011;62988;55.776;37.544;2023-03-31T06:31:15;5.15;;;2.72;;
74503;SDS011;62988;55.776;37.544;2023-03-31T06:36:06;7.57;;;2.83;;
74503;SDS011;62988;55.776;37.544;2023-03-31T06:38:32;8.73;;;2.42;;
74503;SDS011;62988;55.776;37.544;2023-03-31T06:40:57;5.55;;;2.50;;
74503;SDS011;62988;55.776;37.544;2023-03-31T06:43:23;6.23;;;2.47;;
74503;SDS011;62988;55.776;37.544;2023-03-31T06:45:48;6.33;;;3.00;;
74503;SDS011;62988;55.776;37.544;2023-03-31T06:48:13;4.78;;;2.55;;
74503;SDS011;62988;55.776;37.544;2023-03-31T06:50:39;4.60;;;1.85;;
74503;SDS011;62988;55.776;37.544;2023-03-31T06:53:06;6.70;;;2.22;;
74503;SDS011;62988;55.776;37.544;2023-03-31T06:55:31;10.10;;;2.38;;
74503;SDS011;62988;55.776;37.544;2023-03-31T06:57:58;12.70;;;2.88;;
74503;SDS011;62988;55.776;37.544;2023-03-31T07:00:23;8.20;;;3.05;;
74503;SDS011;62988;55.776;37.544;2023-03-31T07:02:50;4.78;;;2.78;;
74503;SDS011;62988;55.776;37.544;2023-03-31T07:05:15;5.25;;;2.60;;
74503;SDS011;62988;55.776;37.544;2023-03-31T07:07:40;6.03;;;2.90;;
74503;SDS011;62988;55.776;37.544;2023-03-31T07:10:06;5.27;;;2.27;;
74503;SDS011;62988;55.776;37.544;2023-03-31T07:12:32;7.10;;;2.75;;
74503;SDS011;62988;55.776;37.544;2023-03-31T07:14:58;13.88;;;3.33;;
74503;SDS011;62988;55.776;37.544;2023-03-31T07:17:23;10.27;;;4.28;;
74503;SDS011;62988;55.776;37.544;2023-03-31T07:19:49;5.15;;;1.85;;
74503;SDS011;62988;55.776;37.544;2023-03-31T07:22:17;8.00;;;2.50;;
74503;SDS011;62988;55.776;37.544;2023-03-31T07:24:43;15.40;;;3.30;;
74503;SDS011;62988;55.776;37.544;2023-03-31T07:27:08;6.63;;;2.70;;
74503;SDS011;62988;55.776;37.544;2023-03-31T07:29:34;10.70;;;2.78;;
74503;SDS011;62988;55.776;37.544;2023-03-31T07:31:59;11.93;;;3.30;;
74503;SDS011;62988;55.776;37.544;2023-03-31T07:34:25;5.90;;;2.83;;
74503;SDS011;62988;55.776;37.544;2023-03-31T07:36:53;8.00;;;2.80;;
74503;SDS011;62988;55.776;37.544;2023-03-31T07:39:19;5.78;;;3.33;;
74503;SDS011;62988;55.776;37.544;2023-03-31T07:41:44;6.20;;;2.80;;
74503;SDS011;62988;55.776;37.544;2023-03-31T07:44:10;13.05;;;3.60;;
74503;SDS011;62988;55.776;37.544;2023-03-31T07:46:35;4.82;;;2.50;;
74503;SDS011;62988;55.776;37.544;2023-03-31T07:49:00;5.05;;;2.97;;
74503;SDS011;62988;55.776;37.544;2023-03-31T07:51:27;4.65;;;2.28;;
74503;SDS011;62988;55.776;37.544;2023-03-31T07:53:52;7.30;;;3.10;;
74503;SDS011;62988;55.776;37.544;2023-03-31T07:56:19;8.27;;;2.75;;
74503;SDS011;62988;55.776;37.544;2023-03-31T07:58:45;6.13;;;3.42;;
74503;SDS011;62988;55.776;37.544;2023-03-31T08:01:18;8.23;;;3.58;;
74503;SDS011;62988;55.776;37.544;2023-03-31T08:03:44;10.23;;;2.95;;
74503;SDS011;62988;55.776;37.544;2023-03-31T08:06:10;5.53;;;3.13;;
74503;SDS011;62988;55.776;37.544;2023-03-31T08:08:35;6.85;;;3.40;;
74503;SDS011;62988;55.776;37.544;2023-03-31T08:11:02;8.02;;;3.08;;
74503;SDS011;62988;55.776;37.544;2023-03-31T08:13:28;11.25;;;3.60;;
74503;SDS011;62988;55.776;37.544;2023-03-31T08:15:53;13.15;;;2.55;;
74503;SDS011;62988;55.776;37.544;2023-03-31T08:18:19;6.25;;;3.30;;
74503;SDS011;62988;55.776;37.544;2023-03-31T08:20:46;4.80;;;2.60;;
74503;SDS011;62988;55.776;37.544;2023-03-31T08:23:14;5.75;;;2.75;;
74503;SDS011;62988;55.776;37.544;2023-03-31T08:25:39;4.70;;;2.40;;
74503;SDS011;62988;55.776;37.544;2023-03-31T08:28:05;9.23;;;3.83;;
74503;SDS011;62988;55.776;37.544;2023-03-31T08:30:31;8.57;;;4.18;;
74503;SDS011;62988;55.776;37.544;2023-03-31T08:32:56;4.63;;;1.95;;
74503;SDS011;62988;55.776;37.544;2023-03-31T08:35:21;4.57;;;2.30;;
74503;SDS011;62988;55.776;37.544;2023-03-31T08:37:47;3.78;;;2.40;;
74503;SDS011;62988;55.776;37.544;2023-03-31T08:40:18;5.17;;;2.67;;
74503;SDS011;62988;55.776;37.544;2023-03-31T08:42:45;8.32;;;2.40;;
74503;SDS011;62988;55.776;37.544;2023-03-31T08:45:32;6.75;;;3.35;;
74503;SDS011;62988;55.776;37.544;2023-03-31T08:48:00;6.93;;;2.72;;
74503;SDS011;62988;55.776;37.544;2023-03-31T08:50:27;5.60;;;2.25;;
74503;SDS011;62988;55.776;37.544;2023-03-31T08:55:24;4.07;;;2.00;;
74503;SDS011;62988;55.776;37.544;2023-03-31T08:57:59;6.72;;;2.45;;
74503;SDS011;62988;55.776;37.544;2023-03-31T09:00:25;4.72;;;2.70;;
74503;SDS011;62988;55.776;37.544;2023-03-31T09:02:59;7.05;;;2.15;;
74503;SDS011;62988;55.776;37.544;2023-03-31T09:05:34;5.63;;;2.53;;
74503;SDS011;62988;55.776;37.544;2023-03-31T09:13:17;3.88;;;2.40;;
74503;SDS011;62988;55.776;37.544;2023-03-31T09:15:58;4.82;;;2.13;;
74503;SDS011;62988;55.776;37.544;2023-03-31T09:18:35;10.70;;;2.40;;
74503;SDS011;62988;55.776;37.544;2023-03-31T09:21:06;6.25;;;2.88;;
74503;SDS011;62988;55.776;37.544;2023-03-31T09:23:37;8.77;;;2.38;;
74503;SDS011;62988;55.776;37.544;2023-03-31T09:26:05;8.40;;;2.45;;
74503;SDS011;62988;55.776;37.544;2023-03-31T09:28:37;5.80;;;2.08;;
74503;SDS011;62988;55.776;37.544;2023-03-31T09:31:13;4.18;;;2.25;;
74503;SDS011;62988;55.776;37.544;2023-03-31T09:33:41;4.57;;;2.00;;
74503;SDS011;62988;55.776;37.544;2023-03-31T09:36:12;7.88;;;2.60;;
74503;SDS011;62988;55.776;37.544;2023-03-31T09:38:39;5.50;;;2.20;;
74503;SDS011;62988;55.776;37.544;2023-03-31T09:41:06;4.65;;;2.20;;
74503;SDS011;62988;55.776;37.544;2023-03-31T09:43:31;8.20;;;2.00;;
74503;SDS011;62988;55.776;37.544;2023-03-31T09:45:59;4.35;;;2.25;;
74503;SDS011;62988;55.776;37.544;2023-03-31T09:48:26;5.32;;;2.03;;
74503;SDS011;62988;55.776;37.544;2023-03-31T09:51:15;4.40;;;2.15;;
74503;SDS011;62988;55.776;37.544;2023-03-31T09:53:47;4.82;;;2.10;;
74503;SDS011;62988;55.776;37.544;2023-03-31T09:56:13;4.72;;;2.05;;
74503;SDS011;62988;55.776;37.544;2023-03-31T09:58:55;4.88;;;1.90;;
74503;SDS011;62988;55.776;37.544;2023-03-31T10:01:25;14.18;;;2.33;;
74503;SDS011;62988;55.776;37.544;2023-03-31T10:03:51;3.15;;;1.63;;
74503;SDS011;62988;55.776;37.544;2023-03-31T10:06:18;7.13;;;2.30;;
74503;SDS011;62988;55.776;37.544;2023-03-31T10:08:54;6.75;;;2.17;;
74503;SDS011;62988;55.776;37.544;2023-03-31T10:11:20;7.57;;;2.15;;
74503;SDS011;62988;55.776;37.544;2023-03-31T10:16:13;5.32;;;1.70;;
74503;SDS011;62988;55.776;37.544;2023-03-31T10:18:52;4.38;;;1.83;;
74503;SDS011;62988;55.776;37.544;2023-03-31T10:21:25;8.23;;;2.22;;
74503;SDS011;62988;55.776;37.544;2023-03-31T10:23:51;7.47;;;2.00;;
74503;SDS011;62988;55.776;37.544;2023-03-31T10:26:20;9.25;;;2.08;;
74503;SDS011;62988;55.776;37.544;2023-03-31T10:31:13;5.72;;;2.80;;
74503;SDS011;62988;55.776;37.544;2023-03-31T10:33:43;4.43;;;2.47;;
74503;SDS011;62988;55.776;37.544;2023-03-31T10:38:43;6.18;;;2.42;;
74503;SDS011;62988;55.776;37.544;2023-03-31T10:41:10;5.38;;;2.25;;
74503;SDS011;62988;55.776;37.544;2023-03-31T10:43:39;4.90;;;1.98;;
74503;SDS011;62988;55.776;37.544;2023-03-31T10:46:05;5.75;;;2.30;;
74503;SDS011;62988;55.776;37.544;2023-03-31T10:48:32;5.15;;;2.05;;
74503;SDS011;62988;55.776;37.544;2023-03-31T10:51:19;5.15;;;3.17;;
74503;SDS011;62988;55.776;37.544;2023-03-31T10:53:44;6.25;;;2.75;;
74503;SDS011;62988;55.776;37.544;2023-03-31T11:01:42;6.43;;;2.50;;
74503;SDS011;62988;55.776;37.544;2023-03-31T11:12:02;6.57;;;2.35;;
74503;SDS011;62988;55.776;37.544;2023-03-31T11:19:34;4.47;;;2.33;;
74503;SDS011;62988;55.776;37.544;2023-03-31T11:22:20;5.47;;;2.13;;
74503;SDS011;62988;55.776;37.544;2023-03-31T11:25:08;9.75;;;2.83;;
74503;SDS011;62988;55.776;37.544;2023-03-31T11:27:40;5.65;;;2.50;;
74503;SDS011;62988;55.776;37.544;2023-03-31T11:32:46;5.65;;;2.42;;
74503;SDS011;62988;55.776;37.544;2023-03-31T11:42:35;8.32;;;2.85;;
74503;SDS011;62988;55.776;37.544;2023-03-31T11:45:24;7.40;;;3.00;;
74503;SDS011;62988;55.776;37.544;2023-03-31T11:47:48;4.32;;;2.53;;
74503;SDS011;62988;55.776;37.544;2023-03-31T11:50:17;6.30;;;2.38;;
74503;SDS011;62988;55.776;37.544;2023-03-31T11:53:04;6.10;;;2.40;;
74503;SDS011;62988;55.776;37.544;2023-03-31T11:55:30;5.07;;;2.30;;
74503;SDS011;62988;55.776;37.544;2023-03-31T12:00:26;5.10;;;2.53;;
74503;SDS011;62988;55.776;37.544;2023-03-31T12:05:24;6.70;;;2.45;;
74503;SDS011;62988;55.776;37.544;2023-03-31T12:08:04;8.27;;;2.63;;
74503;SDS011;62988;55.776;37.544;2023-03-31T12:10:36;7.60;;;2.53;;
74503;SDS011;62988;55.776;37.544;2023-03-31T12:18:35;9.75;;;3.42;;
74503;SDS011;62988;55.776;37.544;2023-03-31T12:21:03;6.00;;;3.55;;
74503;SDS011;62988;55.776;37.544;2023-03-31T12:23:30;4.18;;;2.08;;
74503;SDS011;62988;55.776;37.544;2023-03-31T12:28:42;8.45;;;2.92;;
74503;SDS011;62988;55.776;37.544;2023-03-31T12:31:10;8.77;;;3.30;;
74503;SDS011;62988;55.776;37.544;2023-03-31T12:33:42;8.73;;;2.72;;
74503;SDS011;62988;55.776;37.544;2023-03-31T12:39:39;6.55;;;2.90;;
74503;SDS011;62988;55.776;37.544;2023-03-31T12:46:31;6.57;;;3.15;;
74503;SDS011;62988;55.776;37.544;2023-03-31T12:49:05;7.25;;;3.30;;
74503;SDS011;62988;55.776;37.544;2023-03-31T12:54:13;8.05;;;3.45;;
74503;SDS011;62988;55.776;37.544;2023-03-31T12:59:31;9.55;;;4.78;;
74503;SDS011;62988;55.776;37.544;2023-03-31T13:02:30;5.18;;;3.15;;
74503;SDS011;62988;55.776;37.544;2023-03-31T13:04:48;10.38;;;3.50;;
74503;SDS011;62988;55.776;37.544;2023-03-31T13:09:49;17.65;;;3.55;;
74503;SDS011;62988;55.776;37.544;2023-03-31T13:12:24;5.68;;;2.53;;
74503;SDS011;62988;55.776;37.544;2023-03-31T13:14:52;10.55;;;3.33;;
74503;SDS011;62988;55.776;37.544;2023-03-31T13:19:47;13.05;;;3.63;;
74503;SDS011;62988;55.776;37.544;2023-03-31T13:22:46;9.30;;;2.92;;
74503;SDS011;62988;55.776;37.544;2023-03-31T13:27:49;8.00;;;2.65;;
74503;SDS011;62988;55.776;37.544;2023-03-31T13:31:01;9.95;;;3.33;;
74503;SDS011;62988;55.776;37.544;2023-03-31T13:33:13;8.50;;;3.50;;
74503;SDS011;62988;55.776;37.544;2023-03-31T13:35:39;13.32;;;3.80;;
74503;SDS011;62988;55.776;37.544;2023-03-31T13:38:24;10.35;;;3.47;;
74503;SDS011;62988;55.776;37.544;2023-03-31T13:41:08;9.35;;;3.47;;
74503;SDS011;62988;55.776;37.544;2023-03-31T13:51:34;9.23;;;3.20;;
74503;SDS011;62988;55.776;37.544;2023-03-31T14:04:41;9.20;;;4.20;;
74503;SDS011;62988;55.776;37.544;2023-03-31T14:07:14;10.00;;;4.03;;
74503;SDS011;62988;55.776;37.544;2023-03-31T14:09:41;9.18;;;3.42;;
74503;SDS011;62988;55.776;37.544;2023-03-31T14:12:20;9.13;;;3.40;;
74503;SDS011;62988;55.776;37.544;2023-03-31T14:14:49;6.13;;;3.35;;
74503;SDS011;62988;55.776;37.544;2023-03-31T14:17:16;8.85;;;4.00;;
74503;SDS011;62988;55.776;37.544;2023-03-31T14:37:48;8.35;;;3.83;;
74503;SDS011;62988;55.776;37.544;2023-03-31T14:40:13;7.88;;;3.65;;
74503;SDS011;62988;55.776;37.544;2023-03-31T14:42:40;9.15;;;4.40;;
74503;SDS011;62988;55.776;37.544;2023-03-31T14:45:19;8.43;;;4.63;;
74503;SDS011;62988;55.776;37.544;2023-03-31T14:47:55;9.52;;;3.92;;
74503;SDS011;62988;55.776;37.544;2023-03-31T14:50:21;9.93;;;4.35;;
74503;SDS011;62988;55.776;37.544;2023-03-31T14:52:51;8.40;;;4.40;;
74503;SDS011;62988;55.776;37.544;2023-03-31T14:55:19;10.07;;;4.38;;
74503;SDS011;62988;55.776;37.544;2023-03-31T14:57:46;8.43;;;3.90;;
74503;SDS011;62988;55.776;37.544;2023-03-31T15:00:14;9.35;;;4.72;;
74503;SDS011;62988;55.776;37.544;2023-03-31T15:02:42;9.82;;;4.55;;
74503;SDS011;62988;55.776;37.544;2023-03-31T15:05:09;12.18;;;5.07;;
74503;SDS011;62988;55.776;37.544;2023-03-31T15:07:39;7.68;;;3.90;;
74503;SDS011;62988;55.776;37.544;2023-03-31T15:10:05;7.38;;;3.88;;
74503;SDS011;62988;55.776;37.544;2023-03-31T15:12:30;8.55;;;4.35;;
74503;SDS011;62988;55.776;37.544;2023-03-31T15:14:57;8.48;;;4.35;;
74503;SDS011;62988;55.776;37.544;2023-03-31T15:17:29;9.98;;;4.43;;
74503;SDS011;62988;55.776;37.544;2023-03-31T15:19:57;9.73;;;4.28;;
74503;SDS011;62988;55.776;37.544;2023-03-31T15:22:24;9.18;;;4.90;;
74503;SDS011;62988;55.776;37.544;2023-03-31T15:24:50;9.70;;;4.30;;
74503;SDS011;62988;55.776;37.544;2023-03-31T15:29:59;9.07;;;4.25;;
74503;SDS011;62988;55.776;37.544;2023-03-31T15:32:27;13.38;;;5.03;;
74503;SDS011;62988;55.776;37.544;2023-03-31T15:34:53;11.70;;;5.38;;
74503;SDS011;62988;55.776;37.544;2023-03-31T15:37:26;10.60;;;5.07;;
74503;SDS011;62988;55.776;37.544;2023-03-31T15:39:55;12.50;;;4.90;;
74503;SDS011;62988;55.776;37.544;2023-03-31T15:42:22;14.88;;;5.53;;
74503;SDS011;62988;55.776;37.544;2023-03-31T15:45:15;10.32;;;4.85;;
74503;SDS011;62988;55.776;37.544;2023-03-31T15:47:33;10.27;;;5.28;;
74503;SDS011;62988;55.776;37.544;2023-03-31T15:52:35;10.57;;;5.15;;
74503;SDS011;62988;55.776;37.544;2023-03-31T15:55:23;11.02;;;5.50;;
74503;SDS011;62988;55.776;37.544;2023-03-31T15:57:48;14.50;;;5.18;;
74503;SDS011;62988;55.776;37.544;2023-03-31T16:03:01;14.48;;;6.20;;
74503;SDS011;62988;55.776;37.544;2023-03-31T16:05:41;10.05;;;5.53;;
74503;SDS011;62988;55.776;37.544;2023-03-31T16:08:10;9.02;;;5.13;;
74503;SDS011;62988;55.776;37.544;2023-03-31T16:10:38;11.35;;;4.90;;
74503;SDS011;62988;55.776;37.544;2023-03-31T16:13:05;10.25;;;5.13;;
74503;SDS011;62988;55.776;37.544;2023-03-31T16:17:59;11.80;;;5.88;;
74503;SDS011;62988;55.776;37.544;2023-03-31T16:20:31;14.40;;;6.57;;
74503;SDS011;62988;55.776;37.544;2023-03-31T16:23:01;14.40;;;6.85;;
74503;SDS011;62988;55.776;37.544;2023-03-31T16:25:29;14.20;;;6.43;;
74503;SDS011;62988;55.776;37.544;2023-03-31T16:27:56;11.13;;;5.35;;
74503;SDS011;62988;55.776;37.544;2023-03-31T16:30:32;10.98;;;5.20;;
74503;SDS011;62988;55.776;37.544;2023-03-31T16:33:02;13.13;;;5.10;;
74503;SDS011;62988;55.776;37.544;2023-03-31T16:35:47;13.10;;;6.00;;
74503;SDS011;62988;55.776;37.544;2023-03-31T16:38:17;8.45;;;4.65;;
74503;SDS011;62988;55.776;37.544;2023-03-31T16:40:44;11.48;;;5.13;;
74503;SDS011;62988;55.776;37.544;2023-03-31T16:43:14;12.48;;;5.95;;
74503;SDS011;62988;55.776;37.544;2023-03-31T16:45:42;12.45;;;6.07;;
74503;SDS011;62988;55.776;37.544;2023-03-31T16:48:08;10.75;;;5.90;;
74503;SDS011;62988;55.776;37.544;2023-03-31T16:50:33;12.50;;;6.30;;
74503;SDS011;62988;55.776;37.544;2023-03-31T16:53:02;13.18;;;6.72;;
74503;SDS011;62988;55.776;37.544;2023-03-31T16:55:28;16.35;;;8.93;;
74503;SDS011;62988;55.776;37.544;2023-03-31T16:57:55;18.80;;;9.15;;
74503;SDS011;62988;55.776;37.544;2023-03-31T17:00:21;21.00;;;12.85;;
74503;SDS011;62988;55.776;37.544;2023-03-31T17:02:46;25.95;;;15.10;;
74503;SDS011;62988;55.776;37.544;2023-03-31T17:05:12;24.23;;;13.77;;
74503;SDS011;62988;55.776;37.544;2023-03-31T17:07:37;25.40;;;15.15;;
74503;SDS011;62988;55.776;37.544;2023-03-31T17:10:03;24.48;;;12.60;;
74503;SDS011;62988;55.776;37.544;2023-03-31T17:12:29;25.33;;;14.27;;
74503;SDS011;62988;55.776;37.544;2023-03-31T17:14:54;19.60;;;10.70;;
74503;SDS011;62988;55.776;37.544;2023-03-31T17:17:20;16.92;;;9.80;;
74503;SDS011;62988;55.776;37.544;2023-03-31T17:19:45;15.40;;;8.55;;
74503;SDS011;62988;55.776;37.544;2023-03-31T17:22:11;17.13;;;9.00;;
74503;SDS011;62988;55.776;37.544;2023-03-31T17:24:36;11.43;;;5.77;;
74503;SDS011;62988;55.776;37.544;2023-03-31T17:27:04;15.60;;;7.10;;
74503;SDS011;62988;55.776;37.544;2023-03-31T17:29:30;13.18;;;7.90;;
74503;SDS011;62988;55.776;37.544;2023-03-31T17:31:56;15.25;;;6.72;;
74503;SDS011;62988;55.776;37.544;2023-03-31T17:34:21;11.32;;;5.00;;